createdAt,value
2016-04-05T00:00:55.686Z,0
2016-04-05T00:01:55.688Z,0
2016-04-05T00:02:55.707Z,0
2016-04-05T00:03:55.710Z,0
2016-04-05T00:04:55.713Z,0
2016-04-05T00:05:55.730Z,0
2016-04-05T00:06:55.734Z,0
2016-04-05T00:07:55.580Z,0
2016-04-05T00:08:55.739Z,0
2016-04-05T00:09:55.585Z,0
2016-04-05T00:10:55.776Z,0
2016-04-05T00:11:55.763Z,0
2016-04-05T00:12:55.593Z,0
2016-04-05T00:13:55.768Z,0
2016-04-05T00:14:55.770Z,0
2016-04-05T00:15:55.789Z,0
2016-04-05T00:16:55.792Z,0
2016-04-05T00:17:55.637Z,0
2016-04-05T00:18:55.813Z,0
2016-04-05T00:19:55.815Z,0
2016-04-05T00:20:55.818Z,0
2016-04-05T00:21:55.821Z,0
2016-04-05T00:22:55.823Z,0
2016-04-05T00:23:55.842Z,0
2016-04-05T00:24:55.844Z,0
2016-04-05T00:25:55.847Z,0
2016-04-05T00:26:55.850Z,0
2016-04-05T00:27:55.869Z,0
2016-04-05T00:28:55.950Z,0
2016-04-05T00:29:55.889Z,0
2016-04-05T00:30:55.877Z,0
2016-04-05T00:31:55.895Z,0
2016-04-05T00:32:55.898Z,0
2016-04-05T00:33:55.900Z,0
2016-04-05T00:34:55.903Z,0
2016-04-05T00:35:55.905Z,0
2016-04-05T00:36:55.768Z,0
2016-04-05T00:37:55.926Z,0
2016-04-05T00:38:55.944Z,0
2016-04-05T00:39:55.947Z,0
2016-04-05T00:40:55.950Z,0
2016-04-05T00:41:56.000Z,0
2016-04-05T00:42:55.971Z,0
2016-04-05T00:43:55.974Z,0
2016-04-05T00:44:55.992Z,0
2016-04-05T00:45:55.979Z,0
2016-04-05T00:46:55.966Z,0
2016-04-05T00:47:55.984Z,0
2016-04-05T00:48:56.003Z,0
2016-04-05T00:49:56.005Z,0
2016-04-05T00:50:55.867Z,0
2016-04-05T00:51:56.026Z,0
2016-04-05T00:52:56.013Z,0
2016-04-05T00:53:56.032Z,0
2016-04-05T00:54:56.019Z,0
2016-04-05T00:55:56.022Z,0
2016-04-05T00:56:56.103Z,0
2016-04-05T00:57:56.058Z,0
2016-04-05T00:58:56.092Z,0
2016-04-05T00:59:56.250Z,0
2016-04-05T01:00:56.066Z,0
2016-04-05T01:01:56.100Z,0
2016-04-05T01:02:56.103Z,0
2016-04-05T01:03:56.075Z,0
2016-04-05T01:04:56.094Z,0
2016-04-05T01:05:56.096Z,0
2016-04-05T01:06:56.099Z,0
2016-04-05T01:07:56.116Z,0
2016-04-05T01:08:56.119Z,0
2016-04-05T01:09:56.122Z,0
2016-04-05T01:10:56.124Z,0
2016-04-05T01:11:56.127Z,0
2016-04-05T01:12:56.145Z,0
2016-04-05T01:13:56.148Z,0
2016-04-05T01:14:56.307Z,0
2016-04-05T01:15:56.153Z,0
2016-04-05T01:16:56.203Z,0
2016-04-05T01:17:56.174Z,0
2016-04-05T01:18:56.162Z,0
2016-04-05T01:19:56.196Z,0
2016-04-05T01:20:56.198Z,0
2016-04-05T01:21:56.185Z,0
2016-04-05T01:22:56.203Z,0
2016-04-05T01:23:56.206Z,0
2016-04-05T01:24:56.209Z,0
2016-04-05T01:25:56.242Z,0
2016-04-05T01:26:56.214Z,0
2016-04-05T01:27:56.248Z,0
2016-04-05T01:28:56.219Z,0
2016-04-05T01:29:56.331Z,0
2016-04-05T01:30:56.241Z,0
2016-04-05T01:31:56.259Z,0
2016-04-05T01:32:56.278Z,0
2016-04-05T01:33:56.280Z,0
2016-04-05T01:34:56.267Z,0
2016-04-05T01:35:56.285Z,0
2016-04-05T01:36:56.272Z,0
2016-04-05T01:37:56.291Z,0
2016-04-05T01:38:56.293Z,0
2016-04-05T01:39:56.328Z,0
2016-04-05T01:40:56.299Z,0
2016-04-05T01:41:56.318Z,0
2016-04-05T01:42:56.305Z,0
2016-04-05T01:43:56.323Z,0
2016-04-05T01:44:56.404Z,0
2016-04-05T01:45:56.396Z,0
2016-04-05T01:46:56.686Z,0
2016-04-05T01:47:56.032Z,0
2016-04-05T01:48:58.816Z,0
2016-04-05T01:49:58.107Z,0
2016-04-05T01:50:56.406Z,0
2016-04-05T01:51:56.362Z,0
2016-04-05T01:52:56.396Z,0
2016-04-05T01:53:56.398Z,0
2016-04-05T01:54:56.402Z,0
2016-04-05T01:55:56.404Z,0
2016-04-05T01:56:56.407Z,0
2016-04-05T01:57:56.425Z,0
2016-04-05T01:58:56.397Z,0
2016-04-05T01:59:56.634Z,0
2016-04-05T02:00:56.434Z,0
2016-04-05T02:01:56.436Z,0
2016-04-05T02:02:56.439Z,0
2016-04-05T02:03:56.442Z,0
2016-04-05T02:04:56.461Z,0
2016-04-05T02:05:56.448Z,0
2016-04-05T02:06:56.466Z,0
2016-04-05T02:07:56.489Z,0
2016-04-05T02:08:56.476Z,0
2016-04-05T02:09:56.494Z,0
2016-04-05T02:10:56.497Z,0
2016-04-05T02:11:56.499Z,0
2016-04-05T02:12:56.502Z,0
2016-04-05T02:13:56.521Z,0
2016-04-05T02:14:56.882Z,0
2016-04-05T02:15:56.510Z,0
2016-04-05T02:16:56.528Z,0
2016-04-05T02:17:56.546Z,0
2016-04-05T02:18:56.534Z,0
2016-04-05T02:19:56.552Z,0
2016-04-05T02:20:56.555Z,0
2016-04-05T02:21:56.542Z,0
2016-04-05T02:22:56.560Z,0
2016-04-05T02:23:56.579Z,0
2016-04-05T02:24:56.565Z,0
2016-04-05T02:25:56.584Z,0
2016-04-05T02:26:56.570Z,0
2016-04-05T02:27:56.573Z,0
2016-04-05T02:28:56.436Z,0
2016-04-05T02:29:56.610Z,0
2016-04-05T02:30:56.614Z,0
2016-04-05T02:31:56.631Z,0
2016-04-05T02:32:56.619Z,0
2016-04-05T02:33:56.636Z,0
2016-04-05T02:34:56.624Z,0
2016-04-05T02:35:56.642Z,0
2016-04-05T02:36:56.645Z,0
2016-04-05T02:37:56.647Z,0
2016-04-05T02:38:56.666Z,0
2016-04-05T02:39:56.668Z,0
2016-04-05T02:40:56.671Z,0
2016-04-05T02:41:56.658Z,0
2016-04-05T02:42:56.707Z,0
2016-04-05T02:43:56.524Z,0
2016-04-05T02:44:57.150Z,0
2016-04-05T02:45:56.671Z,0
2016-04-05T02:46:56.676Z,0
2016-04-05T02:47:56.682Z,0
2016-04-05T02:48:56.656Z,0
2016-04-05T02:49:56.662Z,0
2016-04-05T02:50:56.645Z,0
2016-04-05T02:51:56.659Z,0
2016-04-05T02:52:56.657Z,0
2016-04-05T02:53:56.671Z,0
2016-04-05T02:54:56.670Z,0
2016-04-05T02:55:56.686Z,0
2016-04-05T02:56:56.672Z,0
2016-04-05T02:57:56.673Z,0
2016-04-05T02:58:56.674Z,0
2016-04-05T02:59:56.847Z,0
2016-04-05T03:00:56.692Z,0
2016-04-05T03:01:56.694Z,0
2016-04-05T03:02:56.696Z,0
2016-04-05T03:03:56.730Z,0
2016-04-05T03:04:56.732Z,0
2016-04-05T03:05:56.719Z,0
2016-04-05T03:06:56.737Z,0
2016-04-05T03:07:56.755Z,0
2016-04-05T03:08:56.743Z,0
2016-04-05T03:09:56.746Z,0
2016-04-05T03:10:56.749Z,0
2016-04-05T03:11:56.751Z,0
2016-04-05T03:12:56.769Z,0
2016-04-05T03:13:56.788Z,0
2016-04-05T03:14:56.837Z,0
2016-04-05T03:15:56.777Z,0
2016-04-05T03:16:56.780Z,0
2016-04-05T03:17:56.798Z,0
2016-04-05T03:18:56.785Z,0
2016-04-05T03:19:56.787Z,0
2016-04-05T03:20:56.806Z,0
2016-04-05T03:21:56.809Z,0
2016-04-05T03:22:56.827Z,0
2016-04-05T03:23:56.814Z,0
2016-04-05T03:24:56.848Z,0
2016-04-05T03:25:56.851Z,0
2016-04-05T03:26:56.854Z,0
2016-04-05T03:27:56.872Z,0
2016-04-05T03:28:56.890Z,0
2016-04-05T03:29:56.909Z,0
2016-04-05T03:30:56.865Z,0
2016-04-05T03:31:56.884Z,0
2016-04-05T03:32:56.886Z,0
2016-04-05T03:33:56.889Z,0
2016-04-05T03:34:56.892Z,0
2016-04-05T03:35:56.891Z,0
2016-04-05T03:36:56.941Z,0
2016-04-05T03:37:56.896Z,0
2016-04-05T03:38:56.915Z,0
2016-04-05T03:39:56.902Z,0
2016-04-05T03:40:56.795Z,0
2016-04-05T03:41:56.922Z,0
2016-04-05T03:42:56.941Z,0
2016-04-05T03:43:56.928Z,0
2016-04-05T03:44:57.431Z,0
2016-04-05T03:45:56.996Z,0
2016-04-05T03:46:56.952Z,0
2016-04-05T03:47:56.955Z,0
2016-04-05T03:48:56.974Z,0
2016-04-05T03:49:56.976Z,0
2016-04-05T03:50:56.979Z,0
2016-04-05T03:51:56.981Z,0
2016-04-05T03:52:56.984Z,0
2016-04-05T03:53:57.002Z,0
2016-04-05T03:54:57.005Z,0
2016-04-05T03:55:57.008Z,0
2016-04-05T03:56:57.010Z,0
2016-04-05T03:57:57.029Z,0
2016-04-05T03:58:57.047Z,0
2016-04-05T03:59:57.096Z,0
2016-04-05T04:00:57.036Z,0
2016-04-05T04:01:57.055Z,0
2016-04-05T04:02:57.042Z,0
2016-04-05T04:03:57.060Z,0
2016-04-05T04:04:57.063Z,0
2016-04-05T04:05:57.081Z,0
2016-04-05T04:06:57.084Z,0
2016-04-05T04:07:57.072Z,0
2016-04-05T04:08:57.089Z,0
2016-04-05T04:09:57.092Z,0
2016-04-05T04:10:57.095Z,0
2016-04-05T04:11:57.114Z,0
2016-04-05T04:12:57.116Z,0
2016-04-05T04:13:57.119Z,0
2016-04-05T04:14:57.121Z,0
2016-04-05T04:15:57.139Z,0
2016-04-05T04:16:57.127Z,0
2016-04-05T04:17:57.144Z,0
2016-04-05T04:18:57.132Z,0
2016-04-05T04:19:57.150Z,0
2016-04-05T04:20:57.152Z,0
2016-04-05T04:21:57.171Z,0
2016-04-05T04:22:57.173Z,0
2016-04-05T04:23:57.160Z,0
2016-04-05T04:24:57.179Z,0
2016-04-05T04:25:57.198Z,0
2016-04-05T04:26:57.185Z,0
2016-04-05T04:27:57.203Z,0
2016-04-05T04:28:57.190Z,0
2016-04-05T04:29:57.208Z,0
2016-04-05T04:30:57.242Z,0
2016-04-05T04:31:57.245Z,0
2016-04-05T04:32:57.217Z,0
2016-04-05T04:33:57.220Z,0
2016-04-05T04:34:57.237Z,0
2016-04-05T04:35:57.239Z,0
2016-04-05T04:36:57.259Z,0
2016-04-05T04:37:57.277Z,0
2016-04-05T04:38:57.280Z,0
2016-04-05T04:39:57.314Z,0
2016-04-05T04:40:57.269Z,0
2016-04-05T04:41:57.272Z,0
2016-04-05T04:42:57.291Z,0
2016-04-05T04:43:57.293Z,0
2016-04-05T04:44:57.296Z,0
2016-04-05T04:45:57.330Z,0
2016-04-05T04:46:57.317Z,0
2016-04-05T04:47:57.304Z,0
2016-04-05T04:48:57.307Z,0
2016-04-05T04:49:57.340Z,0
2016-04-05T04:50:57.343Z,0
2016-04-05T04:51:57.424Z,0
2016-04-05T04:52:57.348Z,0
2016-04-05T04:53:57.336Z,0
2016-04-05T04:54:57.369Z,0
2016-04-05T04:55:57.371Z,0
2016-04-05T04:56:57.360Z,0
2016-04-05T04:57:57.377Z,0
2016-04-05T04:58:57.396Z,0
2016-04-05T04:59:57.398Z,0
2016-04-05T05:00:57.385Z,0
2016-04-05T05:01:57.388Z,0
2016-04-05T05:02:57.406Z,0
2016-04-05T05:03:57.409Z,0
2016-04-05T05:04:57.412Z,0
2016-04-05T05:05:57.414Z,0
2016-04-05T05:06:57.417Z,0
2016-04-05T05:07:57.436Z,0
2016-04-05T05:08:57.454Z,0
2016-04-05T05:09:57.441Z,0
2016-04-05T05:10:57.459Z,0
2016-04-05T05:11:57.447Z,0
2016-04-05T05:12:57.449Z,0
2016-04-05T05:13:57.483Z,0
2016-04-05T05:14:57.470Z,0
2016-04-05T05:15:57.473Z,0
2016-04-05T05:16:57.475Z,0
2016-04-05T05:17:57.493Z,0
2016-04-05T05:18:57.497Z,0
2016-04-05T05:19:57.499Z,0
2016-04-05T05:20:57.517Z,0
2016-04-05T05:21:57.505Z,0
2016-04-05T05:22:57.507Z,0
2016-04-05T05:23:57.510Z,0
2016-04-05T05:24:57.544Z,0
2016-04-05T05:25:57.531Z,0
2016-04-05T05:26:57.518Z,0
2016-04-05T05:27:57.552Z,0
2016-04-05T05:28:57.555Z,0
2016-04-05T05:29:57.573Z,0
2016-04-05T05:30:57.560Z,0
2016-04-05T05:31:57.562Z,0
2016-04-05T05:32:57.565Z,0
2016-04-05T05:33:57.584Z,0
2016-04-05T05:34:57.586Z,0
2016-04-05T05:35:57.620Z,0
2016-04-05T05:36:57.623Z,0
2016-04-05T05:37:57.594Z,0
2016-04-05T05:38:57.629Z,0
2016-04-05T05:39:57.459Z,0
2016-04-05T05:40:57.617Z,0
2016-04-05T05:41:57.637Z,0
2016-04-05T05:42:57.623Z,0
2016-04-05T05:43:57.642Z,0
2016-04-05T05:44:57.645Z,0
2016-04-05T05:45:57.631Z,0
2016-04-05T05:46:57.650Z,0
2016-04-05T05:47:57.652Z,0
2016-04-05T05:48:57.671Z,0
2016-04-05T05:49:57.657Z,5
2016-04-05T05:50:57.691Z,5
2016-04-05T05:51:57.679Z,5
2016-04-05T05:52:57.697Z,5
2016-04-05T05:53:57.700Z,5
2016-04-05T05:54:57.702Z,5
2016-04-05T05:55:57.705Z,5
2016-04-05T05:56:57.708Z,5
2016-04-05T05:57:57.710Z,5
2016-04-05T05:58:57.729Z,5
2016-04-05T05:59:57.732Z,5
2016-04-05T06:00:57.735Z,5
2016-04-05T06:01:57.737Z,5
2016-04-05T06:02:57.739Z,5
2016-04-05T06:03:57.743Z,5
2016-04-05T06:04:57.776Z,5
2016-04-05T06:05:57.763Z,5
2016-04-05T06:06:57.782Z,5
2016-04-05T06:07:57.769Z,5
2016-04-05T06:08:57.787Z,5
2016-04-05T06:09:57.790Z,5
2016-04-05T06:10:57.792Z,5
2016-04-05T06:11:57.795Z,5
2016-04-05T06:12:57.798Z,5
2016-04-05T06:13:57.816Z,5
2016-04-05T06:14:57.819Z,5
2016-04-05T06:15:57.822Z,5
2016-04-05T06:16:57.839Z,5
2016-04-05T06:17:57.842Z,5
2016-04-05T06:18:57.830Z,5
2016-04-05T06:19:57.863Z,5
2016-04-05T06:20:57.882Z,5
2016-04-05T06:21:57.853Z,5
2016-04-05T06:22:57.856Z,5
2016-04-05T06:23:57.859Z,5
2016-04-05T06:24:57.861Z,5
2016-04-05T06:25:57.879Z,5
2016-04-05T06:26:57.883Z,5
2016-04-05T06:27:57.901Z,5
2016-04-05T06:28:57.887Z,5
2016-04-05T06:29:57.922Z,5
2016-04-05T06:30:57.893Z,5
2016-04-05T06:31:57.927Z,5
2016-04-05T06:32:57.929Z,5
2016-04-05T06:33:57.932Z,5
2016-04-05T06:34:57.935Z,10
2016-04-05T06:35:57.937Z,10
2016-04-05T06:36:57.784Z,10
2016-04-05T06:37:57.943Z,10
2016-04-05T06:38:57.962Z,15
2016-04-05T06:39:57.964Z,15
2016-04-05T06:40:57.967Z,15
2016-04-05T06:41:57.970Z,10
2016-04-05T06:42:57.972Z,10
2016-04-05T06:43:57.991Z,10
2016-04-05T06:44:58.025Z,10
2016-04-05T06:45:58.012Z,10
2016-04-05T06:46:57.999Z,15
2016-04-05T06:47:58.001Z,15
2016-04-05T06:48:58.005Z,15
2016-04-05T06:49:58.038Z,15
2016-04-05T06:50:58.025Z,15
2016-04-05T06:51:58.028Z,15
2016-04-05T06:52:57.890Z,15
2016-04-05T06:53:58.033Z,15
2016-04-05T06:54:58.052Z,15
2016-04-05T06:55:58.054Z,20
2016-04-05T06:56:58.072Z,20
2016-04-05T06:57:58.060Z,20
2016-04-05T06:58:58.062Z,20
2016-04-05T06:59:58.065Z,20
2016-04-05T07:00:58.083Z,25
2016-04-05T07:01:58.101Z,25
2016-04-05T07:02:58.088Z,25
2016-04-05T07:03:58.091Z,25
2016-04-05T07:04:58.109Z,25
2016-04-05T07:05:58.112Z,25
2016-04-05T07:06:58.146Z,30
2016-04-05T07:07:58.181Z,30
2016-04-05T07:08:58.231Z,30
2016-04-05T07:09:58.187Z,25
2016-04-05T07:10:58.174Z,25
2016-04-05T07:11:58.161Z,25
2016-04-05T07:12:58.164Z,25
2016-04-05T07:13:58.214Z,30
2016-04-05T07:14:58.183Z,30
2016-04-05T07:15:58.375Z,35
2016-04-05T07:16:58.032Z,35
2016-04-05T07:17:58.191Z,40
2016-04-05T07:18:58.209Z,40
2016-04-05T07:19:58.211Z,40
2016-04-05T07:20:58.230Z,45
2016-04-05T07:21:58.233Z,40
2016-04-05T07:22:58.219Z,40
2016-04-05T07:23:58.222Z,35
2016-04-05T07:24:58.225Z,35
2016-04-05T07:25:58.227Z,35
2016-04-05T07:26:58.246Z,35
2016-04-05T07:27:58.232Z,30
2016-04-05T07:28:58.235Z,30
2016-04-05T07:29:58.254Z,25
2016-04-05T07:30:58.240Z,25
2016-04-05T07:31:58.260Z,25
2016-04-05T07:32:58.293Z,25
2016-04-05T07:33:58.311Z,30
2016-04-05T07:34:58.298Z,30
2016-04-05T07:35:58.286Z,30
2016-04-05T07:36:58.289Z,30
2016-04-05T07:37:58.322Z,25
2016-04-05T07:38:58.342Z,25
2016-04-05T07:39:58.187Z,25
2016-04-05T07:40:58.346Z,25
2016-04-05T07:41:58.333Z,25
2016-04-05T07:42:58.336Z,25
2016-04-05T07:43:58.339Z,25
2016-04-05T07:44:58.341Z,25
2016-04-05T07:45:58.375Z,25
2016-04-05T07:46:58.363Z,25
2016-04-05T07:47:58.365Z,25
2016-04-05T07:48:58.368Z,25
2016-04-05T07:49:58.371Z,20
2016-04-05T07:50:58.389Z,20
2016-04-05T07:51:58.391Z,20
2016-04-05T07:52:58.394Z,20
2016-04-05T07:53:58.413Z,20
2016-04-05T07:54:58.415Z,25
2016-04-05T07:55:58.418Z,25
2016-04-05T07:56:58.436Z,25
2016-04-05T07:57:58.423Z,25
2016-04-05T07:58:58.457Z,25
2016-04-05T07:59:58.460Z,25
2016-04-05T08:00:58.446Z,20
2016-04-05T08:01:58.465Z,20
2016-04-05T08:02:58.342Z,20
2016-04-05T08:03:58.502Z,20
2016-04-05T08:04:58.489Z,20
2016-04-05T08:05:58.492Z,20
2016-04-05T08:06:58.479Z,20
2016-04-05T08:07:58.497Z,20
2016-04-05T08:08:58.500Z,15
2016-04-05T08:09:58.518Z,15
2016-04-05T08:10:58.552Z,15
2016-04-05T08:11:58.539Z,20
2016-04-05T08:12:58.541Z,20
2016-04-05T08:13:58.545Z,20
2016-04-05T08:14:58.578Z,20
2016-04-05T08:15:58.581Z,15
2016-04-05T08:16:58.552Z,15
2016-04-05T08:17:58.555Z,15
2016-04-05T08:18:58.574Z,15
2016-04-05T08:19:58.576Z,20
2016-04-05T08:20:58.595Z,20
2016-04-05T08:21:58.597Z,20
2016-04-05T08:22:58.599Z,25
2016-04-05T08:23:58.633Z,20
2016-04-05T08:24:58.620Z,20
2016-04-05T08:25:58.639Z,20
2016-04-05T08:26:58.626Z,20
2016-04-05T08:27:58.644Z,20
2016-04-05T08:28:58.647Z,25
2016-04-05T08:29:58.634Z,25
2016-04-05T08:30:58.668Z,25
2016-04-05T08:31:58.655Z,25
2016-04-05T08:32:58.673Z,30
2016-04-05T08:33:58.676Z,25
2016-04-05T08:34:58.679Z,20
2016-04-05T08:35:58.698Z,20
2016-04-05T08:36:58.700Z,20
2016-04-05T08:37:58.687Z,20
2016-04-05T08:38:58.705Z,20
2016-04-05T08:39:58.723Z,20
2016-04-05T08:40:58.711Z,15
2016-04-05T08:41:58.728Z,15
2016-04-05T08:42:58.732Z,10
2016-04-05T08:43:58.750Z,10
2016-04-05T08:44:58.752Z,15
2016-04-05T08:45:58.833Z,15
2016-04-05T08:46:58.758Z,15
2016-04-05T08:47:58.777Z,15
2016-04-05T08:48:58.779Z,15
2016-04-05T08:49:58.767Z,10
2016-04-05T08:50:58.785Z,10
2016-04-05T08:51:58.802Z,10
2016-04-05T08:52:58.821Z,15
2016-04-05T08:53:58.807Z,15
2016-04-05T08:54:58.811Z,15
2016-04-05T08:55:58.813Z,10
2016-04-05T08:56:58.832Z,10
2016-04-05T08:57:58.835Z,10
2016-04-05T08:58:58.837Z,10
2016-04-05T08:59:58.855Z,10
2016-04-05T09:00:58.890Z,10
2016-04-05T09:01:58.860Z,10
2016-04-05T09:02:58.863Z,10
2016-04-05T09:03:58.851Z,10
2016-04-05T09:04:58.885Z,10
2016-04-05T09:05:58.887Z,10
2016-04-05T09:06:58.906Z,10
2016-04-05T09:07:58.892Z,10
2016-04-05T09:08:58.926Z,10
2016-04-05T09:09:58.903Z,10
2016-04-05T09:10:58.921Z,10
2016-04-05T09:11:58.925Z,10
2016-04-05T09:12:58.942Z,15
2016-04-05T09:13:58.930Z,15
2016-04-05T09:14:58.947Z,15
2016-04-05T09:15:59.091Z,15
2016-04-05T09:16:58.953Z,15
2016-04-05T09:17:58.955Z,15
2016-04-05T09:18:58.974Z,15
2016-04-05T09:19:58.992Z,15
2016-04-05T09:20:58.995Z,15
2016-04-05T09:21:58.982Z,15
2016-04-05T09:22:59.000Z,15
2016-04-05T09:23:59.003Z,15
2016-04-05T09:24:59.005Z,15
2016-04-05T09:25:59.024Z,15
2016-04-05T09:26:59.026Z,20
2016-04-05T09:27:59.014Z,20
2016-04-05T09:28:58.891Z,20
2016-04-05T09:29:59.035Z,20
2016-04-05T09:30:58.943Z,20
2016-04-05T09:31:59.056Z,20
2016-04-05T09:32:59.059Z,20
2016-04-05T09:33:59.061Z,20
2016-04-05T09:34:59.064Z,20
2016-04-05T09:35:59.067Z,20
2016-04-05T09:36:59.132Z,20
2016-04-05T09:37:59.135Z,20
2016-04-05T09:38:59.106Z,20
2016-04-05T09:39:59.109Z,20
2016-04-05T09:40:59.127Z,20
2016-04-05T09:41:59.130Z,20
2016-04-05T09:42:59.116Z,15
2016-04-05T09:43:59.120Z,20
2016-04-05T09:44:59.138Z,20
2016-04-05T09:45:59.265Z,20
2016-04-05T09:46:59.143Z,25
2016-04-05T09:47:59.146Z,25
2016-04-05T09:48:59.163Z,30
2016-04-05T09:49:59.166Z,30
2016-04-05T09:50:59.186Z,35
2016-04-05T09:51:59.203Z,35
2016-04-05T09:52:59.174Z,35
2016-04-05T09:53:59.178Z,40
2016-04-05T09:54:59.196Z,35
2016-04-05T09:55:59.199Z,40
2016-04-05T09:56:59.201Z,40
2016-04-05T09:57:59.235Z,40
2016-04-05T09:58:59.238Z,40
2016-04-05T09:59:59.224Z,35
2016-04-05T10:00:59.212Z,35
2016-04-05T10:01:59.292Z,35
2016-04-05T10:02:59.265Z,35
2016-04-05T10:03:59.251Z,35
2016-04-05T10:04:59.270Z,35
2016-04-05T10:05:59.272Z,40
2016-04-05T10:06:59.275Z,40
2016-04-05T10:07:59.277Z,35
2016-04-05T10:08:59.295Z,35
2016-04-05T10:09:59.283Z,30
2016-04-05T10:10:59.316Z,30
2016-04-05T10:11:59.147Z,30
2016-04-05T10:12:59.306Z,30
2016-04-05T10:13:59.153Z,35
2016-04-05T10:14:59.328Z,40
2016-04-05T10:15:59.440Z,40
2016-04-05T10:16:59.349Z,40
2016-04-05T10:17:59.336Z,45
2016-04-05T10:18:59.339Z,50
2016-04-05T10:19:59.357Z,45
2016-04-05T10:20:59.375Z,35
2016-04-05T10:21:59.377Z,30
2016-04-05T10:22:59.396Z,30
2016-04-05T10:23:59.399Z,35
2016-04-05T10:24:59.385Z,30
2016-04-05T10:25:59.389Z,30
2016-04-05T10:26:59.391Z,25
2016-04-05T10:27:59.441Z,25
2016-04-05T10:28:59.444Z,25
2016-04-05T10:29:59.415Z,25
2016-04-05T10:30:59.418Z,20
2016-04-05T10:31:59.451Z,20
2016-04-05T10:32:59.438Z,20
2016-04-05T10:33:59.441Z,20
2016-04-05T10:34:59.444Z,20
2016-04-05T10:35:59.462Z,20
2016-04-05T10:36:59.465Z,25
2016-04-05T10:37:59.483Z,25
2016-04-05T10:38:59.486Z,25
2016-04-05T10:39:59.504Z,30
2016-04-05T10:40:59.491Z,30
2016-04-05T10:41:59.525Z,30
2016-04-05T10:42:59.528Z,35
2016-04-05T10:43:59.546Z,30
2016-04-05T10:44:59.534Z,25
2016-04-05T10:45:59.380Z,30
2016-04-05T10:46:59.383Z,30
2016-04-05T10:47:59.557Z,30
2016-04-05T10:48:59.544Z,40
2016-04-05T10:49:59.563Z,40
2016-04-05T10:50:59.565Z,45
2016-04-05T10:51:59.568Z,45
2016-04-05T10:52:59.586Z,45
2016-04-05T10:53:59.588Z,40
2016-04-05T10:54:59.607Z,40
2016-04-05T10:55:59.593Z,35
2016-04-05T10:56:59.597Z,30
2016-04-05T10:57:59.615Z,30
2016-04-05T10:58:59.618Z,30
2016-04-05T10:59:59.605Z,25
2016-04-05T11:00:59.639Z,20
2016-04-05T11:01:59.657Z,25
2016-04-05T11:02:59.644Z,30
2016-04-05T11:03:59.646Z,30
2016-04-05T11:04:59.666Z,30
2016-04-05T11:05:59.668Z,30
2016-04-05T11:06:59.671Z,30
2016-04-05T11:07:59.520Z,30
2016-04-05T11:08:59.704Z,30
2016-04-05T11:09:59.708Z,30
2016-04-05T11:10:59.710Z,30
2016-04-05T11:11:59.713Z,30
2016-04-05T11:12:59.715Z,30
2016-04-05T11:13:59.718Z,25
2016-04-05T11:14:59.737Z,25
2016-04-05T11:15:59.740Z,25
2016-04-05T11:16:59.727Z,30
2016-04-05T11:17:59.761Z,35
2016-04-05T11:18:59.764Z,30
2016-04-05T11:19:59.751Z,25
2016-04-05T11:20:59.769Z,25
2016-04-05T11:21:59.772Z,25
2016-04-05T11:22:59.775Z,25
2016-04-05T11:23:59.793Z,25
2016-04-05T11:24:59.811Z,25
2016-04-05T11:25:59.829Z,25
2016-04-05T11:26:59.613Z,30
2016-04-05T11:27:59.819Z,30
2016-04-05T11:28:59.838Z,30
2016-04-05T11:29:59.825Z,30
2016-04-05T11:30:59.843Z,35
2016-04-05T11:32:00.252Z,40
2016-04-05T11:32:59.849Z,45
2016-04-05T11:33:59.851Z,45
2016-04-05T11:34:59.885Z,55
2016-04-05T11:35:59.903Z,50
2016-04-05T11:36:59.905Z,60
2016-04-05T11:37:59.893Z,60
2016-04-05T11:38:59.895Z,60
2016-04-05T11:39:59.898Z,60
2016-04-05T11:40:59.916Z,60
2016-04-05T11:41:59.918Z,60
2016-04-05T11:42:59.921Z,60
2016-04-05T11:43:59.939Z,55
2016-04-05T11:44:59.942Z,55
2016-04-05T11:45:59.945Z,60
2016-04-05T11:46:59.978Z,60
2016-04-05T11:47:59.967Z,55
2016-04-05T11:48:59.984Z,55
2016-04-05T11:49:59.987Z,60
2016-04-05T11:51:00.005Z,55
2016-04-05T11:52:00.022Z,55
2016-04-05T11:53:00.001Z,55
2016-04-05T11:54:00.010Z,55
2016-04-05T11:54:59.988Z,55
2016-04-05T11:56:00.013Z,55
2016-04-05T11:56:59.977Z,55
2016-04-05T11:57:59.977Z,55
2016-04-05T11:59:00.007Z,50
2016-04-05T11:59:59.991Z,40
2016-04-05T12:01:00.007Z,35
2016-04-05T12:02:00.006Z,25
2016-04-05T12:03:00.008Z,15
2016-04-05T12:04:00.041Z,10
2016-04-05T12:05:00.027Z,10
2016-04-05T12:06:00.028Z,10
2016-04-05T12:07:00.046Z,15
2016-04-05T12:08:00.033Z,20
2016-04-05T12:09:00.050Z,20
2016-04-05T12:10:00.068Z,20
2016-04-05T12:11:00.070Z,20
2016-04-05T12:12:00.073Z,15
2016-04-05T12:13:00.076Z,15
2016-04-05T12:14:00.078Z,15
2016-04-05T12:15:00.097Z,15
2016-04-05T12:16:00.115Z,15
2016-04-05T12:17:00.117Z,20
2016-04-05T12:18:00.120Z,20
2016-04-05T12:19:00.139Z,25
2016-04-05T12:20:00.126Z,25
2016-04-05T12:21:00.160Z,25
2016-04-05T12:22:00.131Z,30
2016-04-05T12:23:00.165Z,30
2016-04-05T12:24:00.168Z,35
2016-04-05T12:25:00.155Z,35
2016-04-05T12:26:00.189Z,35
2016-04-05T12:27:00.191Z,40
2016-04-05T12:28:00.210Z,40
2016-04-05T12:29:00.212Z,40
2016-04-05T12:30:00.216Z,35
2016-04-05T12:31:14.346Z,40
2016-04-05T12:32:00.236Z,40
2016-04-05T12:33:00.223Z,35
2016-04-05T12:34:00.241Z,35
2016-04-05T12:35:00.243Z,35
2016-04-05T12:36:00.246Z,35
2016-04-05T12:37:00.265Z,30
2016-04-05T12:38:00.268Z,25
2016-04-05T12:39:00.271Z,25
2016-04-05T12:40:00.274Z,30
2016-04-05T12:41:00.432Z,35
2016-04-05T12:42:00.294Z,30
2016-04-05T12:43:00.297Z,25
2016-04-05T12:44:00.315Z,25
2016-04-05T12:45:00.318Z,25
2016-04-05T12:46:00.321Z,30
2016-04-05T12:47:00.323Z,30
2016-04-05T12:48:00.325Z,30
2016-04-05T12:49:00.189Z,30
2016-04-05T12:50:00.364Z,30
2016-04-05T12:51:00.350Z,30
2016-04-05T12:52:00.369Z,30
2016-04-05T12:53:00.356Z,30
2016-04-05T12:54:00.389Z,30
2016-04-05T12:55:00.392Z,35
2016-04-05T12:56:00.410Z,35
2016-04-05T12:57:00.397Z,35
2016-04-05T12:58:00.415Z,35
2016-04-05T12:59:00.434Z,35
2016-04-05T13:00:00.436Z,35
2016-04-05T13:01:01.829Z,30
2016-04-05T13:02:00.457Z,30
2016-04-05T13:03:00.444Z,30
2016-04-05T13:04:00.446Z,25
2016-04-05T13:05:00.449Z,25
2016-04-05T13:06:00.499Z,25
2016-04-05T13:07:00.470Z,35
2016-04-05T13:08:00.317Z,35
2016-04-05T13:09:00.493Z,35
2016-04-05T13:10:00.510Z,35
2016-04-05T13:11:00.529Z,35
2016-04-05T13:12:00.547Z,35
2016-04-05T13:13:00.534Z,35
2016-04-05T13:14:00.521Z,35
2016-04-05T13:15:00.556Z,35
2016-04-05T13:16:00.589Z,40
2016-04-05T13:17:00.669Z,40
2016-04-05T13:18:00.564Z,40
2016-04-05T13:19:00.566Z,40
2016-04-05T13:20:00.584Z,40
2016-04-05T13:21:00.571Z,45
2016-04-05T13:22:00.589Z,45
2016-04-05T13:23:00.592Z,45
2016-04-05T13:24:00.595Z,45
2016-04-05T13:25:01.191Z,45
2016-04-05T13:26:00.616Z,45
2016-04-05T13:27:00.618Z,45
2016-04-05T13:28:00.637Z,45
2016-04-05T13:29:00.639Z,45
2016-04-05T13:30:00.641Z,45
2016-04-05T13:31:00.629Z,45
2016-04-05T13:32:00.757Z,45
2016-04-05T13:33:00.666Z,40
2016-04-05T13:34:00.685Z,40
2016-04-05T13:35:00.671Z,35
2016-04-05T13:36:00.690Z,40
2016-04-05T13:37:00.708Z,40
2016-04-05T13:38:00.710Z,40
2016-04-05T13:39:00.698Z,40
2016-04-05T13:40:00.731Z,40
2016-04-05T13:41:00.719Z,35
2016-04-05T13:42:00.737Z,40
2016-04-05T13:43:00.771Z,35
2016-04-05T13:44:00.976Z,40
2016-04-05T13:45:00.761Z,40
2016-04-05T13:46:00.764Z,40
2016-04-05T13:47:00.954Z,35
2016-04-05T13:48:00.770Z,35
2016-04-05T13:49:00.662Z,35
2016-04-05T13:50:01.821Z,35
2016-04-05T13:51:00.792Z,35
2016-04-05T13:52:00.811Z,35
2016-04-05T13:53:00.813Z,35
2016-04-05T13:54:00.832Z,35
2016-04-05T13:55:00.834Z,35
2016-04-05T13:56:00.837Z,30
2016-04-05T13:57:00.855Z,30
2016-04-05T13:58:00.858Z,35
2016-04-05T13:59:00.845Z,35
2016-04-05T14:00:00.879Z,35
2016-04-05T14:01:00.882Z,35
2016-04-05T14:02:01.041Z,35
2016-04-05T14:03:00.872Z,35
2016-04-05T14:04:00.890Z,35
2016-04-05T14:05:00.908Z,35
2016-04-05T14:06:00.910Z,35
2016-04-05T14:07:00.929Z,30
2016-04-05T14:08:00.963Z,30
2016-04-05T14:09:00.966Z,30
2016-04-05T14:10:00.953Z,30
2016-04-05T14:11:00.956Z,30
2016-04-05T14:12:00.959Z,30
2016-04-05T14:13:00.961Z,30
2016-04-05T14:14:00.979Z,30
2016-04-05T14:15:00.997Z,30
2016-04-05T14:16:00.985Z,25
2016-04-05T14:17:01.112Z,25
2016-04-05T14:18:01.006Z,25
2016-04-05T14:19:01.008Z,25
2016-04-05T14:20:01.026Z,20
2016-04-05T14:21:01.028Z,20
2016-04-05T14:22:01.031Z,20
2016-04-05T14:23:01.050Z,15
2016-04-05T14:24:01.037Z,15
2016-04-05T14:25:01.056Z,15
2016-04-05T14:26:01.058Z,15
2016-04-05T14:27:01.077Z,15
2016-04-05T14:28:01.079Z,15
2016-04-05T14:29:01.082Z,15
2016-04-05T14:30:01.085Z,15